createdAt,value
2018-02-08T00:01:46.075Z,24.23
2018-02-08T00:04:13.592Z,21.77
2018-02-08T00:06:41.934Z,25.10
2018-02-08T00:09:10.673Z,23.17
2018-02-08T00:11:38.212Z,21.90
2018-02-08T00:14:06.527Z,25.37
2018-02-08T00:16:34.074Z,22.33
2018-02-08T00:19:01.588Z,23.80
2018-02-08T00:21:29.147Z,23.47
2018-02-08T00:23:56.707Z,23.10
2018-02-08T00:26:24.238Z,23.97
2018-02-08T00:28:52.560Z,23.20
2018-02-08T00:31:20.848Z,23.80
2018-02-08T00:33:48.398Z,22.83
2018-02-08T00:36:15.919Z,23.70
2018-02-08T00:38:43.467Z,24.20
2018-02-08T00:41:11.753Z,22.80
2018-02-08T00:43:39.359Z,23.37
2018-02-08T00:46:06.916Z,25.53
2018-02-08T00:48:34.464Z,24.03
2018-02-08T00:51:02.031Z,23.60
2018-02-08T00:53:29.558Z,20.80
2018-02-08T00:55:57.199Z,22.40
2018-02-08T00:58:25.480Z,23.50
2018-02-08T01:00:53.014Z,22.87
2018-02-08T01:03:21.318Z,22.63
2018-02-08T01:05:48.838Z,25.23
2018-02-08T01:08:16.396Z,25.10
2018-02-08T01:10:43.931Z,23.60
2018-02-08T01:13:11.456Z,23.87
2018-02-08T01:15:39.011Z,25.30
2018-02-08T01:18:06.520Z,21.30
2018-02-08T01:20:34.078Z,21.43
2018-02-08T01:23:01.603Z,23.13
2018-02-08T01:25:29.123Z,24.57
2018-02-08T01:27:57.435Z,22.27
2018-02-08T01:30:24.967Z,21.53
2018-02-08T01:32:52.511Z,22.37
2018-02-08T01:35:20.752Z,25.77
2018-02-08T01:37:49.096Z,23.50
2018-02-08T01:40:16.618Z,22.50
2018-02-08T01:42:44.937Z,21.90
2018-02-08T01:45:12.487Z,22.17
2018-02-08T01:47:40.005Z,22.97
2018-02-08T01:50:08.287Z,21.20
2018-02-08T01:52:36.589Z,21.40
2018-02-08T01:55:04.103Z,23.60
2018-02-08T01:57:32.407Z,22.17
2018-02-08T01:59:59.935Z,24.10
2018-02-08T02:02:28.237Z,25.87
2018-02-08T02:04:55.724Z,23.40
2018-02-08T02:07:23.291Z,25.37
2018-02-08T02:09:50.802Z,23.33
2018-02-08T02:12:18.352Z,21.93
2018-02-08T02:14:46.601Z,23.20
2018-02-08T02:17:14.935Z,20.83
2018-02-08T02:19:42.447Z,24.80
2018-02-08T02:22:10.764Z,25.57
2018-02-08T02:24:38.272Z,23.17
2018-02-08T02:27:05.819Z,20.97
2018-02-08T02:29:33.350Z,20.80
2018-02-08T02:32:00.899Z,22.03
2018-02-08T02:34:28.456Z,22.87
2018-02-08T02:36:55.971Z,21.10
2018-02-08T02:39:23.488Z,21.23
2018-02-08T02:41:51.025Z,21.87
2018-02-08T02:44:18.562Z,22.47
2018-02-08T02:46:46.087Z,25.20
2018-02-08T02:49:14.437Z,23.00
2018-02-08T02:51:41.955Z,24.67
2018-02-08T02:54:09.463Z,21.77
2018-02-08T02:56:37.007Z,22.77
2018-02-08T02:59:04.541Z,22.67
2018-02-08T03:01:32.085Z,21.50
2018-02-08T03:03:59.623Z,21.73
2018-02-08T03:06:27.903Z,19.77
2018-02-08T03:08:56.225Z,21.97
2018-02-08T03:11:23.739Z,21.80
2018-02-08T03:13:51.258Z,22.53
2018-02-08T03:16:18.843Z,20.27
2018-02-08T03:18:46.389Z,23.20
2018-02-08T03:21:13.935Z,20.87
2018-02-08T03:23:41.476Z,22.80
2018-02-08T03:26:09.036Z,23.93
2018-02-08T03:28:36.587Z,20.80
2018-02-08T03:31:08.805Z,23.60
2018-02-08T03:33:37.541Z,19.37
2018-02-08T03:36:05.097Z,19.93
2018-02-08T03:38:32.623Z,23.10
2018-02-08T03:41:00.139Z,24.17
2018-02-08T03:43:27.703Z,24.50
2018-02-08T03:45:55.226Z,22.57
2018-02-08T03:48:22.712Z,23.17
2018-02-08T03:50:51.046Z,23.77
2018-02-08T03:53:18.555Z,22.30
2018-02-08T03:55:46.137Z,21.40
2018-02-08T03:58:14.420Z,22.23
2018-02-08T04:00:41.966Z,20.50
2018-02-08T04:03:10.264Z,20.27
2018-02-08T04:05:37.806Z,22.27
2018-02-08T04:08:05.356Z,20.37
2018-02-08T04:10:33.645Z,21.57
2018-02-08T04:13:01.200Z,20.97
2018-02-08T04:15:28.774Z,22.90
2018-02-08T04:17:56.297Z,21.63
2018-02-08T04:20:24.579Z,22.60
2018-02-08T04:22:52.858Z,24.00
2018-02-08T04:25:21.184Z,23.27
2018-02-08T04:27:48.731Z,25.03
2018-02-08T04:30:16.300Z,24.40
2018-02-08T04:32:43.840Z,27.27
2018-02-08T04:35:11.368Z,24.27
2018-02-08T04:37:38.919Z,23.63
2018-02-08T04:40:19.042Z,22.60
2018-02-08T04:42:58.377Z,24.20
2018-02-08T04:45:37.716Z,25.40
2018-02-08T04:48:08.166Z,22.87
2018-02-08T04:50:36.454Z,22.70
2018-02-08T04:53:03.998Z,22.30
2018-02-08T04:55:32.336Z,21.10
2018-02-08T04:57:59.851Z,22.43
2018-02-08T05:00:27.370Z,22.70
2018-02-08T05:02:56.194Z,21.63
2018-02-08T05:05:23.718Z,20.63
2018-02-08T05:07:52.016Z,25.27
2018-02-08T05:10:19.571Z,21.67
2018-02-08T05:12:47.857Z,23.17
2018-02-08T05:15:15.412Z,23.60
2018-02-08T05:17:42.943Z,22.33
2018-02-08T05:20:11.823Z,22.77
2018-02-08T05:22:39.370Z,21.93
2018-02-08T05:25:06.899Z,23.07
2018-02-08T05:27:34.458Z,23.00
2018-02-08T05:30:02.027Z,23.40
2018-02-08T05:32:29.550Z,25.40
2018-02-08T05:34:57.110Z,23.80
2018-02-08T05:37:24.663Z,22.73
2018-02-08T05:39:52.179Z,32.93
2018-02-08T05:42:19.720Z,35.50
2018-02-08T05:44:47.296Z,31.97
2018-02-08T05:47:15.563Z,32.37
2018-02-08T05:49:43.104Z,27.83
2018-02-08T05:52:10.573Z,23.87
2018-02-08T05:54:38.919Z,25.20
2018-02-08T05:57:06.467Z,24.97
2018-02-08T05:59:34.022Z,24.17
2018-02-08T06:02:01.537Z,23.17
2018-02-08T06:04:29.075Z,25.40
2018-02-08T06:06:56.594Z,26.30
2018-02-08T06:09:24.139Z,25.87
2018-02-08T06:11:52.433Z,24.20
2018-02-08T06:14:22.839Z,23.63
2018-02-08T06:16:57.373Z,27.80
2018-02-08T06:19:30.486Z,21.87
2018-02-08T06:21:59.261Z,25.80
2018-02-08T06:24:26.787Z,24.77
2018-02-08T06:26:55.096Z,28.20
2018-02-08T06:29:22.584Z,24.00
2018-02-08T06:31:50.939Z,26.80
2018-02-08T06:34:18.467Z,25.07
2018-02-08T06:36:46.042Z,26.23
2018-02-08T06:39:13.616Z,26.60
2018-02-08T06:41:41.140Z,26.33
2018-02-08T06:44:08.715Z,27.30
2018-02-08T06:46:36.285Z,25.20
2018-02-08T06:49:03.865Z,26.17
2018-02-08T06:51:31.415Z,25.17
2018-02-08T06:53:58.943Z,25.57
2018-02-08T06:56:26.501Z,26.83
2018-02-08T06:58:54.048Z,23.80
2018-02-08T07:01:21.587Z,27.20
2018-02-08T07:03:49.927Z,24.13
2018-02-08T07:06:17.464Z,27.10
2018-02-08T07:08:45.389Z,26.00
2018-02-08T07:11:13.730Z,25.67
2018-02-08T07:13:42.543Z,27.33
2018-02-08T07:16:10.887Z,28.50
2018-02-08T07:18:39.307Z,26.43
2018-02-08T07:21:06.855Z,23.47
2018-02-08T07:23:35.148Z,24.03
2018-02-08T07:26:03.477Z,27.97
2018-02-08T07:28:31.071Z,24.37
2018-02-08T07:30:59.382Z,28.80
2018-02-08T07:33:26.946Z,25.73
2018-02-08T07:35:54.499Z,25.80
2018-02-08T07:38:22.071Z,30.73
2018-02-08T07:40:49.603Z,28.27
2018-02-08T07:43:17.150Z,28.70
2018-02-08T07:45:45.598Z,30.37
2018-02-08T07:48:13.134Z,32.93
2018-02-08T07:50:40.674Z,31.10
2018-02-08T07:53:08.258Z,30.30
2018-02-08T07:55:35.846Z,28.13
2018-02-08T07:58:04.147Z,32.87
2018-02-08T08:00:31.809Z,31.00
2018-02-08T08:02:59.348Z,32.00
2018-02-08T08:05:27.655Z,32.33
2018-02-08T08:07:55.215Z,33.63
2018-02-08T08:10:23.248Z,36.57
2018-02-08T08:12:51.562Z,36.80
2018-02-08T08:15:19.117Z,34.40
2018-02-08T08:17:46.676Z,35.23
2018-02-08T08:20:15.087Z,35.43
2018-02-08T08:22:42.579Z,37.77
2018-02-08T08:25:10.142Z,35.07
2018-02-08T08:27:37.703Z,35.57
2018-02-08T08:30:05.231Z,36.60
2018-02-08T08:32:32.805Z,35.70
2018-02-08T08:35:01.112Z,35.07
2018-02-08T08:37:28.622Z,32.63
2018-02-08T08:39:56.185Z,35.33
2018-02-08T08:42:23.753Z,37.90
2018-02-08T08:44:52.051Z,34.73
2018-02-08T08:47:19.586Z,36.27
2018-02-08T08:49:47.953Z,37.40
2018-02-08T08:52:16.252Z,38.87
2018-02-08T08:54:43.798Z,37.57
2018-02-08T08:57:12.146Z,37.27
2018-02-08T08:59:39.684Z,36.03
2018-02-08T09:02:07.248Z,38.43
2018-02-08T09:04:34.781Z,37.40
2018-02-08T09:07:02.348Z,37.57
2018-02-08T09:09:29.904Z,35.97
2018-02-08T09:11:57.456Z,40.87
2018-02-08T09:14:25.012Z,38.67
2018-02-08T09:16:52.581Z,40.10
2018-02-08T09:19:20.141Z,43.03
2018-02-08T09:21:47.691Z,42.97
2018-02-08T09:24:15.267Z,43.00
2018-02-08T09:26:42.824Z,41.53
2018-02-08T09:29:10.385Z,43.87
2018-02-08T09:31:37.910Z,41.73
2018-02-08T09:34:05.683Z,41.67
2018-02-08T09:36:33.296Z,39.43
2018-02-08T09:39:01.549Z,37.87
2018-02-08T09:41:29.941Z,38.43
2018-02-08T09:43:57.472Z,39.70
2018-02-08T09:46:25.035Z,39.97
2018-02-08T09:48:52.599Z,40.63
2018-02-08T09:51:20.152Z,37.23
2018-02-08T09:53:47.707Z,41.30
2018-02-08T09:56:15.347Z,39.10
2018-02-08T09:58:42.907Z,37.60
2018-02-08T10:01:10.509Z,39.50
2018-02-08T10:03:38.051Z,40.57
2018-02-08T10:06:05.597Z,38.10
2018-02-08T10:08:33.149Z,40.67
2018-02-08T10:11:00.730Z,42.43
2018-02-08T10:13:28.279Z,38.97
2018-02-08T10:15:55.876Z,37.50
2018-02-08T10:18:24.187Z,36.20
2018-02-08T10:20:51.884Z,34.00
2018-02-08T10:23:19.460Z,36.37
2018-02-08T10:25:47.027Z,34.00
2018-02-08T10:28:15.315Z,37.10
2018-02-08T10:30:43.711Z,36.90
2018-02-08T10:33:11.268Z,32.10
2018-02-08T10:35:39.570Z,33.70
2018-02-08T10:38:07.129Z,34.93
2018-02-08T10:40:34.733Z,30.50
2018-02-08T10:43:03.054Z,28.50
2018-02-08T10:45:30.605Z,28.00
2018-02-08T10:47:58.176Z,27.23
2018-02-08T10:50:25.729Z,25.17
2018-02-08T10:52:53.280Z,25.53
2018-02-08T10:55:20.822Z,30.63
2018-02-08T10:57:48.480Z,27.50
2018-02-08T11:00:17.608Z,28.00
2018-02-08T11:02:45.232Z,26.00
2018-02-08T11:05:13.956Z,24.53
2018-02-08T11:07:42.333Z,24.93
2018-02-08T11:10:09.907Z,24.60
2018-02-08T11:12:37.496Z,24.67
2018-02-08T11:15:09.197Z,23.00
2018-02-08T11:17:38.072Z,22.47
2018-02-08T11:20:05.661Z,22.47
